sensor_id;sensor_type;location;lat;lon;timestamp;P1;durP1;ratioP1;P2;durP2;ratioP2
36663;SDS011;53333;51.976;20.144;2022-08-23T00:01:26;11.75;;;8.60;;
36663;SDS011;53333;51.976;20.144;2022-08-23T00:04:04;19.50;;;8.98;;
36663;SDS011;53333;51.976;20.144;2022-08-23T00:06:42;14.27;;;9.07;;
36663;SDS011;53333;51.976;20.144;2022-08-23T00:09:17;16.08;;;9.60;;
36663;SDS011;53333;51.976;20.144;2022-08-23T00:11:53;15.43;;;9.15;;
36663;SDS011;53333;51.976;20.144;2022-08-23T00:14:35;15.48;;;9.30;;
36663;SDS011;53333;51.976;20.144;2022-08-23T00:17:14;19.95;;;9.95;;
36663;SDS011;53333;51.976;20.144;2022-08-23T00:20:06;15.18;;;10.23;;
36663;SDS011;53333;51.976;20.144;2022-08-23T00:22:41;15.15;;;10.13;;
36663;SDS011;53333;51.976;20.144;2022-08-23T00:25:20;17.10;;;10.18;;
36663;SDS011;53333;51.976;20.144;2022-08-23T00:27:54;12.40;;;9.20;;
36663;SDS011;53333;51.976;20.144;2022-08-23T00:30:28;11.57;;;9.48;;
36663;SDS011;53333;51.976;20.144;2022-08-23T00:33:07;14.98;;;10.32;;
36663;SDS011;53333;51.976;20.144;2022-08-23T00:35:43;15.50;;;10.65;;
36663;SDS011;53333;51.976;20.144;2022-08-23T00:38:17;18.83;;;9.98;;
36663;SDS011;53333;51.976;20.144;2022-08-23T00:41:07;15.25;;;11.02;;
36663;SDS011;53333;51.976;20.144;2022-08-23T00:43:46;19.48;;;10.57;;
36663;SDS011;53333;51.976;20.144;2022-08-23T00:46:39;16.95;;;11.02;;
36663;SDS011;53333;51.976;20.144;2022-08-23T00:49:40;19.85;;;11.07;;
36663;SDS011;53333;51.976;20.144;2022-08-23T00:52:26;17.25;;;10.85;;
36663;SDS011;53333;51.976;20.144;2022-08-23T00:55:06;15.88;;;11.15;;
36663;SDS011;53333;51.976;20.144;2022-08-23T00:57:43;16.15;;;11.80;;
36663;SDS011;53333;51.976;20.144;2022-08-23T01:00:21;18.38;;;11.10;;
36663;SDS011;53333;51.976;20.144;2022-08-23T01:02:59;13.60;;;10.13;;
36663;SDS011;53333;51.976;20.144;2022-08-23T01:05:40;17.33;;;9.98;;
36663;SDS011;53333;51.976;20.144;2022-08-23T01:08:25;19.23;;;11.68;;
36663;SDS011;53333;51.976;20.144;2022-08-23T01:11:06;20.42;;;12.05;;
36663;SDS011;53333;51.976;20.144;2022-08-23T01:13:43;20.15;;;12.23;;
36663;SDS011;53333;51.976;20.144;2022-08-23T01:16:21;23.00;;;11.50;;
36663;SDS011;53333;51.976;20.144;2022-08-23T01:19:05;20.70;;;11.80;;
36663;SDS011;53333;51.976;20.144;2022-08-23T01:22:06;22.80;;;12.10;;
36663;SDS011;53333;51.976;20.144;2022-08-23T01:24:50;20.35;;;11.02;;
36663;SDS011;53333;51.976;20.144;2022-08-23T01:27:44;19.77;;;10.85;;
36663;SDS011;53333;51.976;20.144;2022-08-23T01:30:22;15.50;;;11.48;;
36663;SDS011;53333;51.976;20.144;2022-08-23T01:33:02;15.50;;;10.20;;
36663;SDS011;53333;51.976;20.144;2022-08-23T01:35:39;16.27;;;11.23;;
36663;SDS011;53333;51.976;20.144;2022-08-23T01:38:15;17.35;;;11.30;;
36663;SDS011;53333;51.976;20.144;2022-08-23T01:40:51;24.05;;;12.70;;
36663;SDS011;53333;51.976;20.144;2022-08-23T01:43:25;20.98;;;11.85;;
36663;SDS011;53333;51.976;20.144;2022-08-23T01:46:05;19.85;;;12.40;;
36663;SDS011;53333;51.976;20.144;2022-08-23T01:48:44;19.00;;;12.07;;
36663;SDS011;53333;51.976;20.144;2022-08-23T01:51:20;20.30;;;12.15;;
36663;SDS011;53333;51.976;20.144;2022-08-23T01:53:54;18.98;;;11.75;;
36663;SDS011;53333;51.976;20.144;2022-08-23T01:56:32;18.85;;;11.15;;
36663;SDS011;53333;51.976;20.144;2022-08-23T01:59:15;19.10;;;12.77;;
36663;SDS011;53333;51.976;20.144;2022-08-23T02:01:57;24.67;;;11.75;;
36663;SDS011;53333;51.976;20.144;2022-08-23T02:04:30;23.35;;;12.15;;
36663;SDS011;53333;51.976;20.144;2022-08-23T02:07:04;20.27;;;12.48;;
36663;SDS011;53333;51.976;20.144;2022-08-23T02:09:38;17.35;;;12.70;;
36663;SDS011;53333;51.976;20.144;2022-08-23T02:12:14;21.10;;;12.32;;
36663;SDS011;53333;51.976;20.144;2022-08-23T02:14:48;20.92;;;12.40;;
36663;SDS011;53333;51.976;20.144;2022-08-23T02:17:26;21.90;;;12.93;;
36663;SDS011;53333;51.976;20.144;2022-08-23T02:20:00;20.63;;;12.55;;
36663;SDS011;53333;51.976;20.144;2022-08-23T02:22:36;18.05;;;12.13;;
36663;SDS011;53333;51.976;20.144;2022-08-23T02:25:10;24.33;;;13.35;;
36663;SDS011;53333;51.976;20.144;2022-08-23T02:27:45;26.70;;;13.98;;
36663;SDS011;53333;51.976;20.144;2022-08-23T02:30:20;22.95;;;13.60;;
36663;SDS011;53333;51.976;20.144;2022-08-23T02:32:53;22.65;;;14.43;;
36663;SDS011;53333;51.976;20.144;2022-08-23T02:35:30;23.42;;;14.60;;
36663;SDS011;53333;51.976;20.144;2022-08-23T02:38:04;27.70;;;15.00;;
36663;SDS011;53333;51.976;20.144;2022-08-23T02:40:40;21.05;;;14.23;;
36663;SDS011;53333;51.976;20.144;2022-08-23T02:43:16;24.33;;;13.43;;
36663;SDS011;53333;51.976;20.144;2022-08-23T02:45:50;24.10;;;12.57;;
36663;SDS011;53333;51.976;20.144;2022-08-23T02:48:24;22.15;;;14.27;;
36663;SDS011;53333;51.976;20.144;2022-08-23T02:51:06;20.80;;;13.75;;
36663;SDS011;53333;51.976;20.144;2022-08-23T02:53:40;21.27;;;13.10;;
36663;SDS011;53333;51.976;20.144;2022-08-23T02:56:15;18.83;;;12.75;;
36663;SDS011;53333;51.976;20.144;2022-08-23T02:58:55;20.85;;;14.00;;
36663;SDS011;53333;51.976;20.144;2022-08-23T03:01:33;22.83;;;13.35;;
36663;SDS011;53333;51.976;20.144;2022-08-23T03:04:21;21.45;;;13.98;;
36663;SDS011;53333;51.976;20.144;2022-08-23T03:06:55;17.40;;;11.95;;
36663;SDS011;53333;51.976;20.144;2022-08-23T03:09:28;22.15;;;13.30;;
36663;SDS011;53333;51.976;20.144;2022-08-23T03:12:02;21.45;;;12.73;;
36663;SDS011;53333;51.976;20.144;2022-08-23T03:14:41;19.38;;;13.65;;
36663;SDS011;53333;51.976;20.144;2022-08-23T03:17:16;22.05;;;13.70;;
36663;SDS011;53333;51.976;20.144;2022-08-23T03:19:50;22.40;;;12.75;;
36663;SDS011;53333;51.976;20.144;2022-08-23T03:22:24;16.08;;;13.02;;
36663;SDS011;53333;51.976;20.144;2022-08-23T03:24:58;21.45;;;14.15;;
36663;SDS011;53333;51.976;20.144;2022-08-23T03:27:43;20.08;;;13.52;;
36663;SDS011;53333;51.976;20.144;2022-08-23T03:30:30;21.40;;;14.13;;
36663;SDS011;53333;51.976;20.144;2022-08-23T03:33:08;23.23;;;12.88;;
36663;SDS011;53333;51.976;20.144;2022-08-23T03:35:42;18.52;;;12.75;;
36663;SDS011;53333;51.976;20.144;2022-08-23T03:38:17;22.00;;;13.43;;
36663;SDS011;53333;51.976;20.144;2022-08-23T03:40:52;19.20;;;13.65;;
36663;SDS011;53333;51.976;20.144;2022-08-23T03:43:28;21.95;;;13.77;;
36663;SDS011;53333;51.976;20.144;2022-08-23T03:46:03;20.23;;;12.48;;
36663;SDS011;53333;51.976;20.144;2022-08-23T03:48:41;21.02;;;13.98;;
36663;SDS011;53333;51.976;20.144;2022-08-23T03:51:14;18.58;;;13.90;;
36663;SDS011;53333;51.976;20.144;2022-08-23T03:53:49;23.27;;;14.75;;
36663;SDS011;53333;51.976;20.144;2022-08-23T03:56:24;28.45;;;14.07;;
36663;SDS011;53333;51.976;20.144;2022-08-23T03:59:00;21.95;;;14.50;;
36663;SDS011;53333;51.976;20.144;2022-08-23T04:01:38;23.40;;;14.57;;
36663;SDS011;53333;51.976;20.144;2022-08-23T04:04:12;23.23;;;14.07;;
36663;SDS011;53333;51.976;20.144;2022-08-23T04:07:01;20.95;;;14.57;;
36663;SDS011;53333;51.976;20.144;2022-08-23T04:09:35;25.00;;;15.15;;
36663;SDS011;53333;51.976;20.144;2022-08-23T04:12:10;28.35;;;15.05;;
36663;SDS011;53333;51.976;20.144;2022-08-23T04:14:49;23.60;;;15.57;;
36663;SDS011;53333;51.976;20.144;2022-08-23T04:17:24;27.63;;;15.85;;
36663;SDS011;53333;51.976;20.144;2022-08-23T04:19:59;24.48;;;15.73;;
36663;SDS011;53333;51.976;20.144;2022-08-23T04:22:35;25.45;;;15.50;;
36663;SDS011;53333;51.976;20.144;2022-08-23T04:25:09;28.67;;;15.80;;
36663;SDS011;53333;51.976;20.144;2022-08-23T04:28:03;25.42;;;16.25;;
36663;SDS011;53333;51.976;20.144;2022-08-23T04:30:37;24.33;;;15.50;;
36663;SDS011;53333;51.976;20.144;2022-08-23T04:33:14;23.90;;;16.77;;
36663;SDS011;53333;51.976;20.144;2022-08-23T04:35:49;23.95;;;15.15;;
36663;SDS011;53333;51.976;20.144;2022-08-23T04:38:25;27.75;;;15.27;;
36663;SDS011;53333;51.976;20.144;2022-08-23T04:41:03;25.40;;;15.40;;
36663;SDS011;53333;51.976;20.144;2022-08-23T04:43:57;23.65;;;15.68;;
36663;SDS011;53333;51.976;20.144;2022-08-23T04:46:33;26.23;;;15.85;;
36663;SDS011;53333;51.976;20.144;2022-08-23T04:49:08;28.92;;;15.90;;
36663;SDS011;53333;51.976;20.144;2022-08-23T04:51:43;25.73;;;15.55;;
36663;SDS011;53333;51.976;20.144;2022-08-23T04:54:25;23.58;;;14.95;;
36663;SDS011;53333;51.976;20.144;2022-08-23T04:57:21;23.27;;;16.38;;
36663;SDS011;53333;51.976;20.144;2022-08-23T04:59:55;25.88;;;17.40;;
36663;SDS011;53333;51.976;20.144;2022-08-23T05:02:29;26.20;;;15.05;;
36663;SDS011;53333;51.976;20.144;2022-08-23T05:05:05;23.60;;;15.10;;
36663;SDS011;53333;51.976;20.144;2022-08-23T05:07:46;27.13;;;15.35;;
36663;SDS011;53333;51.976;20.144;2022-08-23T05:10:20;25.00;;;15.50;;
36663;SDS011;53333;51.976;20.144;2022-08-23T05:12:56;29.65;;;16.90;;
36663;SDS011;53333;51.976;20.144;2022-08-23T05:15:30;23.23;;;16.33;;
36663;SDS011;53333;51.976;20.144;2022-08-23T05:18:08;25.42;;;15.25;;
36663;SDS011;53333;51.976;20.144;2022-08-23T05:20:45;26.63;;;16.70;;
36663;SDS011;53333;51.976;20.144;2022-08-23T05:23:19;25.67;;;16.02;;
36663;SDS011;53333;51.976;20.144;2022-08-23T05:26:16;22.73;;;15.23;;
36663;SDS011;53333;51.976;20.144;2022-08-23T05:28:50;30.60;;;16.30;;
36663;SDS011;53333;51.976;20.144;2022-08-23T05:31:30;26.15;;;15.60;;
36663;SDS011;53333;51.976;20.144;2022-08-23T05:34:06;24.48;;;16.00;;
36663;SDS011;53333;51.976;20.144;2022-08-23T05:36:50;26.60;;;16.63;;
36663;SDS011;53333;51.976;20.144;2022-08-23T05:39:40;26.02;;;16.45;;
36663;SDS011;53333;51.976;20.144;2022-08-23T05:42:15;24.15;;;15.70;;
36663;SDS011;53333;51.976;20.144;2022-08-23T05:44:50;25.75;;;17.17;;
36663;SDS011;53333;51.976;20.144;2022-08-23T05:47:26;27.70;;;14.60;;
36663;SDS011;53333;51.976;20.144;2022-08-23T05:50:27;20.88;;;14.73;;
36663;SDS011;53333;51.976;20.144;2022-08-23T05:53:04;23.05;;;14.70;;
36663;SDS011;53333;51.976;20.144;2022-08-23T05:55:41;22.05;;;14.77;;
36663;SDS011;53333;51.976;20.144;2022-08-23T05:58:22;26.10;;;14.30;;
36663;SDS011;53333;51.976;20.144;2022-08-23T06:00:56;23.48;;;14.07;;
36663;SDS011;53333;51.976;20.144;2022-08-23T06:03:30;21.77;;;15.15;;
36663;SDS011;53333;51.976;20.144;2022-08-23T06:06:03;26.42;;;14.23;;
36663;SDS011;53333;51.976;20.144;2022-08-23T06:08:40;23.52;;;14.43;;
36663;SDS011;53333;51.976;20.144;2022-08-23T06:11:17;24.85;;;13.48;;
36663;SDS011;53333;51.976;20.144;2022-08-23T06:13:54;22.85;;;14.13;;
36663;SDS011;53333;51.976;20.144;2022-08-23T06:16:32;20.80;;;13.77;;
36663;SDS011;53333;51.976;20.144;2022-08-23T06:19:08;26.25;;;13.43;;
36663;SDS011;53333;51.976;20.144;2022-08-23T06:22:01;19.58;;;14.07;;
36663;SDS011;53333;51.976;20.144;2022-08-23T06:24:40;25.13;;;14.63;;
36663;SDS011;53333;51.976;20.144;2022-08-23T06:27:19;18.73;;;13.95;;
36663;SDS011;53333;51.976;20.144;2022-08-23T06:29:54;22.30;;;14.32;;
36663;SDS011;53333;51.976;20.144;2022-08-23T06:32:37;22.70;;;13.60;;
36663;SDS011;53333;51.976;20.144;2022-08-23T06:35:29;19.98;;;12.40;;
36663;SDS011;53333;51.976;20.144;2022-08-23T06:38:26;17.80;;;12.65;;
36663;SDS011;53333;51.976;20.144;2022-08-23T06:41:14;25.95;;;12.80;;
36663;SDS011;53333;51.976;20.144;2022-08-23T06:43:54;21.65;;;12.18;;
36663;SDS011;53333;51.976;20.144;2022-08-23T06:46:50;16.17;;;12.85;;
36663;SDS011;53333;51.976;20.144;2022-08-23T06:49:24;18.80;;;11.80;;
36663;SDS011;53333;51.976;20.144;2022-08-23T06:51:59;20.08;;;12.43;;
36663;SDS011;53333;51.976;20.144;2022-08-23T06:54:55;15.38;;;11.88;;
36663;SDS011;53333;51.976;20.144;2022-08-23T06:57:54;19.38;;;11.82;;
36663;SDS011;53333;51.976;20.144;2022-08-23T07:00:46;16.70;;;10.88;;
36663;SDS011;53333;51.976;20.144;2022-08-23T07:03:52;18.02;;;11.13;;
36663;SDS011;53333;51.976;20.144;2022-08-23T07:06:50;19.17;;;11.88;;
36663;SDS011;53333;51.976;20.144;2022-08-23T07:09:24;20.30;;;11.85;;
36663;SDS011;53333;51.976;20.144;2022-08-23T07:11:59;12.68;;;10.18;;
36663;SDS011;53333;51.976;20.144;2022-08-23T07:14:36;16.90;;;10.63;;
36663;SDS011;53333;51.976;20.144;2022-08-23T07:17:10;13.75;;;9.63;;
36663;SDS011;53333;51.976;20.144;2022-08-23T07:19:44;18.33;;;9.88;;
36663;SDS011;53333;51.976;20.144;2022-08-23T07:22:18;16.65;;;8.90;;
36663;SDS011;53333;51.976;20.144;2022-08-23T07:24:52;13.60;;;8.77;;
36663;SDS011;53333;51.976;20.144;2022-08-23T07:27:26;18.55;;;10.50;;
36663;SDS011;53333;51.976;20.144;2022-08-23T07:30:07;15.82;;;10.95;;
36663;SDS011;53333;51.976;20.144;2022-08-23T07:32:43;19.58;;;9.82;;
36663;SDS011;53333;51.976;20.144;2022-08-23T07:35:27;15.65;;;10.27;;
36663;SDS011;53333;51.976;20.144;2022-08-23T07:38:03;20.95;;;10.18;;
36663;SDS011;53333;51.976;20.144;2022-08-23T07:40:40;18.05;;;10.02;;
36663;SDS011;53333;51.976;20.144;2022-08-23T07:43:16;18.50;;;10.38;;
36663;SDS011;53333;51.976;20.144;2022-08-23T07:45:51;17.33;;;9.57;;
36663;SDS011;53333;51.976;20.144;2022-08-23T07:48:27;20.85;;;10.48;;
36663;SDS011;53333;51.976;20.144;2022-08-23T07:51:27;13.20;;;8.82;;
36663;SDS011;53333;51.976;20.144;2022-08-23T07:54:04;14.45;;;10.15;;
36663;SDS011;53333;51.976;20.144;2022-08-23T07:56:50;14.77;;;10.25;;
36663;SDS011;53333;51.976;20.144;2022-08-23T07:59:50;20.00;;;10.27;;
36663;SDS011;53333;51.976;20.144;2022-08-23T08:02:48;20.05;;;10.10;;
36663;SDS011;53333;51.976;20.144;2022-08-23T08:05:30;15.70;;;10.48;;
36663;SDS011;53333;51.976;20.144;2022-08-23T08:08:04;19.08;;;10.77;;
36663;SDS011;53333;51.976;20.144;2022-08-23T08:10:41;17.08;;;9.98;;
36663;SDS011;53333;51.976;20.144;2022-08-23T08:13:25;18.08;;;9.75;;
36663;SDS011;53333;51.976;20.144;2022-08-23T08:15:59;16.17;;;10.82;;
36663;SDS011;53333;51.976;20.144;2022-08-23T08:18:37;16.80;;;10.40;;
36663;SDS011;53333;51.976;20.144;2022-08-23T08:21:43;17.30;;;9.95;;
36663;SDS011;53333;51.976;20.144;2022-08-23T08:24:41;19.15;;;9.98;;
36663;SDS011;53333;51.976;20.144;2022-08-23T08:27:16;15.52;;;9.10;;
36663;SDS011;53333;51.976;20.144;2022-08-23T08:29:50;12.82;;;9.45;;
36663;SDS011;53333;51.976;20.144;2022-08-23T08:32:25;13.30;;;9.40;;
36663;SDS011;53333;51.976;20.144;2022-08-23T08:35:00;13.50;;;9.25;;
36663;SDS011;53333;51.976;20.144;2022-08-23T08:37:34;19.67;;;9.80;;
36663;SDS011;53333;51.976;20.144;2022-08-23T08:40:14;22.95;;;12.63;;
36663;SDS011;53333;51.976;20.144;2022-08-23T08:42:57;16.50;;;9.85;;
36663;SDS011;53333;51.976;20.144;2022-08-23T08:45:43;14.10;;;7.72;;
36663;SDS011;53333;51.976;20.144;2022-08-23T08:48:35;13.73;;;8.25;;
36663;SDS011;53333;51.976;20.144;2022-08-23T08:51:20;13.55;;;8.00;;
36663;SDS011;53333;51.976;20.144;2022-08-23T08:54:09;12.38;;;8.23;;
36663;SDS011;53333;51.976;20.144;2022-08-23T08:56:52;16.10;;;8.57;;
36663;SDS011;53333;51.976;20.144;2022-08-23T08:59:31;17.83;;;10.10;;
36663;SDS011;53333;51.976;20.144;2022-08-23T09:02:19;11.18;;;8.20;;
36663;SDS011;53333;51.976;20.144;2022-08-23T09:05:09;12.65;;;7.32;;
36663;SDS011;53333;51.976;20.144;2022-08-23T09:07:49;14.48;;;8.05;;
36663;SDS011;53333;51.976;20.144;2022-08-23T09:10:49;18.58;;;9.70;;
36663;SDS011;53333;51.976;20.144;2022-08-23T09:13:41;14.27;;;9.10;;
36663;SDS011;53333;51.976;20.144;2022-08-23T09:16:43;10.75;;;7.90;;
36663;SDS011;53333;51.976;20.144;2022-08-23T09:19:23;17.25;;;8.75;;
36663;SDS011;53333;51.976;20.144;2022-08-23T09:22:00;15.90;;;8.80;;
36663;SDS011;53333;51.976;20.144;2022-08-23T09:24:40;12.10;;;7.68;;
36663;SDS011;53333;51.976;20.144;2022-08-23T09:27:21;13.88;;;8.15;;
36663;SDS011;53333;51.976;20.144;2022-08-23T09:29:55;15.25;;;7.95;;
36663;SDS011;53333;51.976;20.144;2022-08-23T09:32:33;17.40;;;7.35;;
36663;SDS011;53333;51.976;20.144;2022-08-23T09:35:14;11.00;;;7.57;;
36663;SDS011;53333;51.976;20.144;2022-08-23T09:37:58;15.45;;;7.68;;
36663;SDS011;53333;51.976;20.144;2022-08-23T09:40:40;13.50;;;7.28;;
36663;SDS011;53333;51.976;20.144;2022-08-23T09:43:21;12.93;;;7.10;;
36663;SDS011;53333;51.976;20.144;2022-08-23T09:46:07;13.38;;;7.70;;
36663;SDS011;53333;51.976;20.144;2022-08-23T09:48:43;12.15;;;6.72;;
36663;SDS011;53333;51.976;20.144;2022-08-23T09:51:24;10.40;;;6.97;;
36663;SDS011;53333;51.976;20.144;2022-08-23T09:54:09;12.60;;;7.03;;
36663;SDS011;53333;51.976;20.144;2022-08-23T09:56:51;12.32;;;6.55;;
36663;SDS011;53333;51.976;20.144;2022-08-23T09:59:34;9.88;;;6.60;;
36663;SDS011;53333;51.976;20.144;2022-08-23T10:02:23;11.57;;;6.47;;
36663;SDS011;53333;51.976;20.144;2022-08-23T10:05:16;12.55;;;6.15;;
36663;SDS011;53333;51.976;20.144;2022-08-23T10:07:53;10.55;;;6.82;;
36663;SDS011;53333;51.976;20.144;2022-08-23T10:10:30;12.95;;;6.13;;
36663;SDS011;53333;51.976;20.144;2022-08-23T10:13:11;13.05;;;6.28;;
36663;SDS011;53333;51.976;20.144;2022-08-23T10:15:49;14.65;;;6.70;;
36663;SDS011;53333;51.976;20.144;2022-08-23T10:18:36;12.02;;;6.05;;
36663;SDS011;53333;51.976;20.144;2022-08-23T10:21:20;12.82;;;6.22;;
36663;SDS011;53333;51.976;20.144;2022-08-23T10:24:04;11.57;;;6.22;;
36663;SDS011;53333;51.976;20.144;2022-08-23T10:26:51;10.15;;;6.13;;
36663;SDS011;53333;51.976;20.144;2022-08-23T10:29:36;11.90;;;6.80;;
36663;SDS011;53333;51.976;20.144;2022-08-23T10:32:17;16.23;;;6.30;;
36663;SDS011;53333;51.976;20.144;2022-08-23T10:35:05;12.50;;;6.40;;
36663;SDS011;53333;51.976;20.144;2022-08-23T10:40:34;17.15;;;8.20;;
36663;SDS011;53333;51.976;20.144;2022-08-23T10:43:14;19.17;;;8.07;;
36663;SDS011;53333;51.976;20.144;2022-08-23T10:46:02;21.63;;;8.68;;
36663;SDS011;53333;51.976;20.144;2022-08-23T10:48:44;14.88;;;6.32;;
36663;SDS011;53333;51.976;20.144;2022-08-23T10:51:24;45.75;;;16.52;;
36663;SDS011;53333;51.976;20.144;2022-08-23T10:54:07;12.60;;;5.45;;
36663;SDS011;53333;51.976;20.144;2022-08-23T10:56:45;14.77;;;6.78;;
36663;SDS011;53333;51.976;20.144;2022-08-23T10:59:23;15.57;;;7.28;;
36663;SDS011;53333;51.976;20.144;2022-08-23T11:02:04;11.77;;;5.70;;
36663;SDS011;53333;51.976;20.144;2022-08-23T11:05:00;17.10;;;8.30;;
36663;SDS011;53333;51.976;20.144;2022-08-23T11:07:39;43.67;;;17.95;;
36663;SDS011;53333;51.976;20.144;2022-08-23T11:12:59;14.20;;;6.45;;
36663;SDS011;53333;51.976;20.144;2022-08-23T11:15:41;17.38;;;6.82;;
36663;SDS011;53333;51.976;20.144;2022-08-23T11:24:28;20.63;;;7.57;;
36663;SDS011;53333;51.976;20.144;2022-08-23T11:27:32;29.15;;;12.82;;
36663;SDS011;53333;51.976;20.144;2022-08-23T11:33:18;23.58;;;9.10;;
36663;SDS011;53333;51.976;20.144;2022-08-23T11:39:04;22.42;;;8.68;;
36663;SDS011;53333;51.976;20.144;2022-08-23T11:42:00;17.45;;;8.35;;
36663;SDS011;53333;51.976;20.144;2022-08-23T11:44:39;26.70;;;8.52;;
36663;SDS011;53333;51.976;20.144;2022-08-23T11:47:25;17.73;;;8.70;;
36663;SDS011;53333;51.976;20.144;2022-08-23T11:56:13;36.33;;;14.70;;
36663;SDS011;53333;51.976;20.144;2022-08-23T11:59:07;16.15;;;7.03;;
36663;SDS011;53333;51.976;20.144;2022-08-23T12:01:54;15.10;;;6.67;;
36663;SDS011;53333;51.976;20.144;2022-08-23T12:04:31;12.55;;;7.38;;
36663;SDS011;53333;51.976;20.144;2022-08-23T12:07:09;15.68;;;7.32;;
36663;SDS011;53333;51.976;20.144;2022-08-23T12:09:51;10.30;;;7.68;;
36663;SDS011;53333;51.976;20.144;2022-08-23T12:12:32;13.43;;;7.43;;
36663;SDS011;53333;51.976;20.144;2022-08-23T12:15:11;16.02;;;7.60;;
36663;SDS011;53333;51.976;20.144;2022-08-23T12:20:45;15.15;;;7.20;;
36663;SDS011;53333;51.976;20.144;2022-08-23T12:23:19;15.63;;;9.43;;
36663;SDS011;53333;51.976;20.144;2022-08-23T12:26:04;12.20;;;6.85;;
36663;SDS011;53333;51.976;20.144;2022-08-23T12:28:48;14.82;;;6.80;;
36663;SDS011;53333;51.976;20.144;2022-08-23T12:31:31;9.63;;;7.28;;
36663;SDS011;53333;51.976;20.144;2022-08-23T12:34:15;14.40;;;7.68;;
36663;SDS011;53333;51.976;20.144;2022-08-23T12:39:45;15.68;;;7.50;;
36663;SDS011;53333;51.976;20.144;2022-08-23T12:42:24;22.75;;;9.38;;
36663;SDS011;53333;51.976;20.144;2022-08-23T12:45:05;15.60;;;7.38;;
36663;SDS011;53333;51.976;20.144;2022-08-23T12:47:45;16.60;;;6.65;;
36663;SDS011;53333;51.976;20.144;2022-08-23T12:50:30;16.77;;;6.90;;
36663;SDS011;53333;51.976;20.144;2022-08-23T12:53:08;14.38;;;6.53;;
36663;SDS011;53333;51.976;20.144;2022-08-23T12:55:48;14.98;;;10.30;;
36663;SDS011;53333;51.976;20.144;2022-08-23T12:58:25;11.10;;;6.13;;
36663;SDS011;53333;51.976;20.144;2022-08-23T13:01:06;14.65;;;6.28;;
36663;SDS011;53333;51.976;20.144;2022-08-23T13:03:52;12.73;;;6.47;;
36663;SDS011;53333;51.976;20.144;2022-08-23T13:06:31;14.02;;;6.00;;
36663;SDS011;53333;51.976;20.144;2022-08-23T13:09:14;16.25;;;6.82;;
36663;SDS011;53333;51.976;20.144;2022-08-23T13:11:51;14.20;;;7.00;;
36663;SDS011;53333;51.976;20.144;2022-08-23T13:14:33;13.25;;;6.50;;
36663;SDS011;53333;51.976;20.144;2022-08-23T13:17:17;12.55;;;6.53;;
36663;SDS011;53333;51.976;20.144;2022-08-23T13:20:08;12.38;;;7.07;;
36663;SDS011;53333;51.976;20.144;2022-08-23T13:22:56;14.80;;;7.90;;
36663;SDS011;53333;51.976;20.144;2022-08-23T13:25:33;12.35;;;5.93;;
36663;SDS011;53333;51.976;20.144;2022-08-23T13:28:22;9.43;;;6.10;;
36663;SDS011;53333;51.976;20.144;2022-08-23T13:30:58;12.27;;;6.63;;
36663;SDS011;53333;51.976;20.144;2022-08-23T13:33:35;17.20;;;9.45;;
36663;SDS011;53333;51.976;20.144;2022-08-23T13:36:12;11.32;;;6.53;;
36663;SDS011;53333;51.976;20.144;2022-08-23T13:38:52;15.05;;;7.40;;
36663;SDS011;53333;51.976;20.144;2022-08-23T13:41:27;14.35;;;6.03;;
36663;SDS011;53333;51.976;20.144;2022-08-23T13:44:09;13.77;;;6.03;;
36663;SDS011;53333;51.976;20.144;2022-08-23T13:46:49;10.23;;;5.57;;
36663;SDS011;53333;51.976;20.144;2022-08-23T13:49:25;11.10;;;5.32;;
36663;SDS011;53333;51.976;20.144;2022-08-23T13:52:02;15.18;;;4.95;;
36663;SDS011;53333;51.976;20.144;2022-08-23T13:54:59;20.52;;;7.32;;
36663;SDS011;53333;51.976;20.144;2022-08-23T13:57:32;12.55;;;5.15;;
36663;SDS011;53333;51.976;20.144;2022-08-23T14:00:08;13.90;;;5.03;;
36663;SDS011;53333;51.976;20.144;2022-08-23T14:02:48;12.35;;;6.82;;
36663;SDS011;53333;51.976;20.144;2022-08-23T14:05:23;10.55;;;5.07;;
36663;SDS011;53333;51.976;20.144;2022-08-23T14:07:57;13.07;;;4.38;;
36663;SDS011;53333;51.976;20.144;2022-08-23T14:10:31;11.65;;;5.45;;
36663;SDS011;53333;51.976;20.144;2022-08-23T14:13:05;13.63;;;4.95;;
36663;SDS011;53333;51.976;20.144;2022-08-23T14:15:42;8.30;;;4.80;;
36663;SDS011;53333;51.976;20.144;2022-08-23T14:18:27;10.18;;;4.78;;
36663;SDS011;53333;51.976;20.144;2022-08-23T14:21:02;9.60;;;4.40;;
36663;SDS011;53333;51.976;20.144;2022-08-23T14:23:36;13.05;;;4.20;;
36663;SDS011;53333;51.976;20.144;2022-08-23T14:26:10;13.63;;;5.05;;
36663;SDS011;53333;51.976;20.144;2022-08-23T14:28:48;8.10;;;3.58;;
36663;SDS011;53333;51.976;20.144;2022-08-23T14:31:25;13.55;;;4.22;;
36663;SDS011;53333;51.976;20.144;2022-08-23T14:34:01;9.52;;;3.85;;
36663;SDS011;53333;51.976;20.144;2022-08-23T14:36:38;9.02;;;4.15;;
36663;SDS011;53333;51.976;20.144;2022-08-23T14:39:32;12.82;;;4.85;;
36663;SDS011;53333;51.976;20.144;2022-08-23T14:42:06;15.70;;;4.80;;
36663;SDS011;53333;51.976;20.144;2022-08-23T14:44:40;13.02;;;4.68;;
36663;SDS011;53333;51.976;20.144;2022-08-23T14:47:14;9.57;;;4.68;;
36663;SDS011;53333;51.976;20.144;2022-08-23T14:49:48;16.73;;;5.35;;
36663;SDS011;53333;51.976;20.144;2022-08-23T14:52:26;13.50;;;5.68;;
36663;SDS011;53333;51.976;20.144;2022-08-23T14:55:00;10.43;;;4.63;;
36663;SDS011;53333;51.976;20.144;2022-08-23T14:57:34;14.23;;;5.20;;
36663;SDS011;53333;51.976;20.144;2022-08-23T15:00:08;11.60;;;4.43;;
36663;SDS011;53333;51.976;20.144;2022-08-23T15:02:46;11.73;;;4.93;;
36663;SDS011;53333;51.976;20.144;2022-08-23T15:05:20;14.52;;;4.82;;
36663;SDS011;53333;51.976;20.144;2022-08-23T15:07:56;12.27;;;5.88;;
36663;SDS011;53333;51.976;20.144;2022-08-23T15:10:29;12.40;;;5.50;;
36663;SDS011;53333;51.976;20.144;2022-08-23T15:13:23;9.90;;;5.07;;
36663;SDS011;53333;51.976;20.144;2022-08-23T15:16:05;11.23;;;5.43;;
36663;SDS011;53333;51.976;20.144;2022-08-23T15:18:43;10.73;;;5.10;;
36663;SDS011;53333;51.976;20.144;2022-08-23T15:21:18;16.38;;;6.10;;
36663;SDS011;53333;51.976;20.144;2022-08-23T15:23:53;13.27;;;6.63;;
36663;SDS011;53333;51.976;20.144;2022-08-23T15:26:28;12.90;;;6.40;;
36663;SDS011;53333;51.976;20.144;2022-08-23T15:29:03;15.82;;;9.65;;
36663;SDS011;53333;51.976;20.144;2022-08-23T15:31:37;13.55;;;6.50;;
36663;SDS011;53333;51.976;20.144;2022-08-23T15:34:11;18.25;;;9.73;;
36663;SDS011;53333;51.976;20.144;2022-08-23T15:36:44;20.17;;;11.93;;
36663;SDS011;53333;51.976;20.144;2022-08-23T15:39:19;14.93;;;7.10;;
36663;SDS011;53333;51.976;20.144;2022-08-23T15:41:54;15.30;;;6.75;;
36663;SDS011;53333;51.976;20.144;2022-08-23T15:44:28;15.82;;;7.68;;
36663;SDS011;53333;51.976;20.144;2022-08-23T15:47:01;12.27;;;7.10;;
36663;SDS011;53333;51.976;20.144;2022-08-23T15:49:37;18.20;;;8.48;;
36663;SDS011;53333;51.976;20.144;2022-08-23T15:52:10;16.83;;;8.05;;
36663;SDS011;53333;51.976;20.144;2022-08-23T15:54:46;14.05;;;7.63;;
36663;SDS011;53333;51.976;20.144;2022-08-23T15:57:21;24.58;;;8.52;;
36663;SDS011;53333;51.976;20.144;2022-08-23T15:59:58;11.40;;;7.50;;